createdAt,value
2022-11-14T00:02:16.827Z,101463.94
2022-11-14T00:05:37.707Z,101451.00
2022-11-14T00:08:47.149Z,101450.44
2022-11-14T00:12:10.759Z,101447.00
2022-11-14T00:15:22.232Z,101446.22
2022-11-14T00:18:30.540Z,101447.00
2022-11-14T00:21:33.363Z,101450.56
2022-11-14T00:24:39.962Z,101448.97
2022-11-14T00:28:02.146Z,101435.84
2022-11-14T00:31:04.847Z,101444.66
2022-11-14T00:34:09.336Z,101444.66
2022-11-14T00:37:11.819Z,101442.28
2022-11-14T00:40:26.892Z,101439.81
2022-11-14T00:43:29.877Z,101439.06
2022-11-14T00:46:53.587Z,101440.66
2022-11-14T00:50:00.681Z,101438.16
2022-11-14T00:53:05.306Z,101443.56
2022-11-14T00:56:23.435Z,101443.56
2022-11-14T00:59:49.540Z,101447.19
2022-11-14T01:02:52.419Z,101448.25
2022-11-14T01:06:06.956Z,101436.94
2022-11-14T01:09:09.831Z,101441.06
2022-11-14T01:12:21.876Z,101445.19
2022-11-14T01:15:42.202Z,101440.91
2022-11-14T01:18:54.071Z,101429.00
2022-11-14T01:22:42.624Z,101433.37
2022-11-14T01:25:52.454Z,101423.97
2022-11-14T01:29:02.465Z,101424.09
2022-11-14T01:32:10.317Z,101424.06
2022-11-14T01:35:29.283Z,101417.06
2022-11-14T01:38:37.727Z,101422.34
2022-11-14T01:41:51.741Z,101420.06
2022-11-14T01:45:07.739Z,101421.81
2022-11-14T01:48:41.422Z,101415.69
2022-11-14T01:52:06.673Z,101423.28
2022-11-14T01:55:09.941Z,101410.94
2022-11-14T01:59:01.682Z,101415.12
2022-11-14T02:02:11.187Z,101402.28
2022-11-14T02:09:25.519Z,101400.63
2022-11-14T02:12:32.662Z,101408.88
2022-11-14T02:15:39.463Z,101392.03
2022-11-14T02:19:08.064Z,101401.34
2022-11-14T02:22:23.528Z,101393.37
2022-11-14T02:25:26.305Z,101407.09
2022-11-14T02:28:29.277Z,101406.44
2022-11-14T02:32:15.794Z,101403.84
2022-11-14T02:35:11.911Z,101402.44
2022-11-14T02:45:40.016Z,101395.12
2022-11-14T02:48:57.872Z,101394.59
2022-11-14T02:52:18.112Z,101399.53
2022-11-14T02:55:22.620Z,101392.66
2022-11-14T02:58:55.208Z,101383.47
2022-11-14T03:02:15.924Z,101392.16
2022-11-14T03:05:33.904Z,101398.25
2022-11-14T03:08:43.614Z,101393.78
2022-11-14T03:11:49.813Z,101386.88
2022-11-14T03:15:08.353Z,101379.34
2022-11-14T03:18:17.358Z,101382.72
2022-11-14T04:51:43.266Z,101334.00
2022-11-14T04:54:57.805Z,101334.06
2022-11-14T04:58:00.235Z,101333.97
2022-11-14T05:01:09.432Z,101328.75
2022-11-14T05:04:27.365Z,101326.13
2022-11-14T05:14:38.475Z,101325.09
2022-11-14T05:18:00.964Z,101324.22
2022-11-14T05:21:14.912Z,101313.03
2022-11-14T05:24:17.883Z,101316.66
2022-11-14T05:31:31.438Z,101319.16
2022-11-14T05:34:51.768Z,101318.09
2022-11-14T05:43:01.576Z,101322.31
2022-11-14T05:46:31.086Z,101322.50
2022-11-14T05:49:41.785Z,101331.22
2022-11-14T05:56:46.159Z,101313.03
2022-11-14T05:59:55.098Z,101312.19
2022-11-14T06:03:02.805Z,101315.31
2022-11-14T06:06:59.287Z,101315.94
2022-11-14T06:10:08.424Z,101330.41
2022-11-14T06:13:11.662Z,101328.25
2022-11-14T06:16:18.035Z,101332.16
2022-11-14T06:19:22.055Z,101333.53
2022-11-14T06:22:25.429Z,101342.03
2022-11-14T06:25:30.526Z,101343.69
2022-11-14T06:28:35.353Z,101345.31
2022-11-14T06:31:38.523Z,101352.00
2022-11-14T06:34:40.905Z,101363.91
2022-11-14T06:37:44.170Z,101361.22
2022-11-14T06:40:48.119Z,101350.69
2022-11-14T06:44:03.854Z,101348.84
2022-11-14T06:47:20.826Z,101351.28
2022-11-14T06:50:36.669Z,101350.22
2022-11-14T06:53:41.959Z,101342.16
2022-11-14T06:56:44.347Z,101347.25
2022-11-14T06:59:49.771Z,101345.09
2022-11-14T07:02:53.117Z,101343.03
2022-11-14T07:05:58.063Z,101349.44
2022-11-14T07:09:00.585Z,101350.78
2022-11-14T07:12:03.889Z,101355.41
2022-11-14T07:15:12.051Z,101351.25
2022-11-14T07:18:16.344Z,101358.87
2022-11-14T07:21:19.792Z,101362.09
2022-11-14T07:24:25.830Z,101361.28
2022-11-14T07:27:29.032Z,101357.41
2022-11-14T07:30:33.848Z,101355.31
2022-11-14T07:33:37.490Z,101352.88
2022-11-14T07:36:42.376Z,101349.00
2022-11-14T07:40:01.246Z,101343.16
2022-11-14T07:43:08.905Z,101345.84
2022-11-14T07:46:17.122Z,101349.81
2022-11-14T07:49:22.633Z,101343.84
2022-11-14T07:52:33.736Z,101342.56
2022-11-14T07:55:39.760Z,101344.97
2022-11-14T07:58:43.492Z,101354.75
2022-11-14T08:01:45.486Z,101353.47
2022-11-14T08:04:47.979Z,101352.50
2022-11-14T08:08:10.441Z,101357.16
2022-11-14T08:11:23.092Z,101351.22
2022-11-14T08:14:36.127Z,101350.34
2022-11-14T08:17:40.101Z,101343.59
2022-11-14T08:20:45.411Z,101339.16
2022-11-14T08:23:48.011Z,101340.72
2022-11-14T08:26:53.282Z,101334.59
2022-11-14T08:29:57.736Z,101329.00
2022-11-14T08:33:12.913Z,101324.81
2022-11-14T08:36:15.321Z,101333.44
2022-11-14T08:39:17.602Z,101321.03
2022-11-14T08:42:21.146Z,101320.53
2022-11-14T08:45:26.502Z,101325.81
2022-11-14T08:48:29.495Z,101326.16
2022-11-14T08:51:32.047Z,101322.06
2022-11-14T08:54:34.850Z,101320.50
2022-11-14T08:57:37.382Z,101318.37
2022-11-14T09:00:40.175Z,101314.66
2022-11-14T09:03:44.978Z,101325.91
2022-11-14T09:06:58.929Z,101318.72
2022-11-14T09:10:02.890Z,101314.16
2022-11-14T09:13:05.763Z,101321.13
2022-11-14T09:16:14.801Z,101323.91
2022-11-14T09:19:31.529Z,101320.69
2022-11-14T09:22:35.061Z,101320.25
2022-11-14T09:25:37.655Z,101326.19
2022-11-14T09:28:39.548Z,101322.41
2022-11-14T09:31:42.527Z,101321.69
2022-11-14T09:34:45.750Z,101316.03
2022-11-14T09:37:47.930Z,101312.97
2022-11-14T09:41:04.032Z,101314.72
2022-11-14T09:44:06.378Z,101305.94
2022-11-14T09:47:16.638Z,101313.88
2022-11-14T09:50:25.868Z,101310.00
2022-11-14T09:53:38.985Z,101303.31
2022-11-14T09:56:42.171Z,101297.78
2022-11-14T09:59:44.892Z,101290.91
2022-11-14T10:02:54.436Z,101288.91
2022-11-14T10:06:16.116Z,101287.19
2022-11-14T10:09:18.152Z,101288.97
2022-11-14T10:12:31.825Z,101287.38
2022-11-14T10:15:56.023Z,101274.72
2022-11-14T10:19:04.269Z,101270.94
2022-11-14T10:22:15.019Z,101268.19
2022-11-14T10:25:23.104Z,101266.50
2022-11-14T10:28:45.303Z,101260.69
2022-11-14T10:32:14.892Z,101242.41
2022-11-14T10:35:20.966Z,101241.62
2022-11-14T10:38:26.086Z,101243.75
2022-11-14T10:41:56.262Z,101237.63
2022-11-14T10:45:06.415Z,101235.59
2022-11-14T10:51:49.180Z,101222.06
2022-11-14T10:55:02.241Z,101223.53
2022-11-14T10:58:17.879Z,101222.78
2022-11-14T11:01:36.012Z,101220.63
2022-11-14T11:04:39.537Z,101213.00
2022-11-14T11:08:21.499Z,101214.03
2022-11-14T11:11:32.492Z,101212.91
2022-11-14T11:14:45.228Z,101208.81
2022-11-14T11:17:56.405Z,101204.50
2022-11-14T11:21:13.189Z,101205.56
2022-11-14T11:24:31.163Z,101191.12
2022-11-14T11:27:33.458Z,101183.28
2022-11-14T11:30:37.501Z,101183.34
2022-11-14T11:33:40.196Z,101183.06
2022-11-14T11:36:50.114Z,101176.34
2022-11-14T11:39:56.701Z,101168.84
2022-11-14T11:43:37.794Z,101162.16
2022-11-14T11:47:05.758Z,101166.16
2022-11-14T11:50:24.993Z,101169.41
2022-11-14T11:53:52.937Z,101171.94
2022-11-14T11:57:07.662Z,101160.78
2022-11-14T12:00:16.194Z,101153.59
2022-11-14T12:03:23.428Z,101158.00
2022-11-14T12:06:27.786Z,101152.13
2022-11-14T12:13:18.373Z,101134.72
2022-11-14T12:16:27.801Z,101136.28
2022-11-14T12:19:44.631Z,101123.62
2022-11-14T12:22:55.481Z,101115.34
2022-11-14T12:26:04.115Z,101114.09
2022-11-14T12:29:31.481Z,101113.69
2022-11-14T12:32:55.150Z,101113.16
2022-11-14T12:36:09.027Z,101107.94
2022-11-14T12:39:36.043Z,101091.56
2022-11-14T12:42:39.103Z,101100.78
2022-11-14T12:45:45.278Z,101096.06
2022-11-14T12:48:48.399Z,101087.59
2022-11-14T13:01:35.868Z,101078.75
2022-11-14T13:04:44.762Z,101075.62
2022-11-14T13:07:50.253Z,101075.31
2022-11-14T13:10:53.393Z,101073.22
2022-11-14T13:14:20.304Z,101076.88
2022-11-14T13:17:46.040Z,101065.97
2022-11-14T13:21:21.476Z,101069.66
2022-11-14T13:24:25.623Z,101055.50
2022-11-14T13:28:00.266Z,101069.25
2022-11-14T13:31:07.365Z,101068.94
2022-11-14T13:34:31.047Z,101061.50
2022-11-14T13:37:41.282Z,101059.50
2022-11-14T13:41:08.351Z,101061.53
2022-11-14T13:44:29.219Z,101057.00
2022-11-14T13:47:42.689Z,101047.03
2022-11-14T13:51:06.426Z,101034.06
2022-11-14T13:54:21.302Z,101041.09
2022-11-14T13:57:37.887Z,101037.00
2022-11-14T14:01:00.548Z,101039.91
2022-11-14T14:04:09.080Z,101035.28
2022-11-14T14:07:40.088Z,101032.78
2022-11-14T14:10:45.581Z,101027.09
2022-11-14T14:14:17.061Z,101026.03
2022-11-14T14:17:26.814Z,101023.19
2022-11-14T14:20:56.829Z,101021.88
2022-11-14T14:24:08.153Z,101023.87
2022-11-14T14:27:49.454Z,101021.84
2022-11-14T14:48:34.260Z,101017.81
2022-11-14T14:52:00.667Z,101011.38
2022-11-14T14:55:48.056Z,101011.06
2022-11-14T15:10:47.023Z,101010.78
2022-11-14T15:14:03.198Z,101008.75
2022-11-14T15:17:23.498Z,101000.03
2022-11-14T15:20:40.782Z,100995.06
2022-11-14T15:27:40.187Z,100996.94
2022-11-14T15:30:45.476Z,101000.09
2022-11-14T15:37:34.896Z,100999.53
2022-11-14T15:40:56.529Z,101000.19
2022-11-14T15:44:35.243Z,100990.31
2022-11-14T15:47:47.215Z,100996.94
2022-11-14T15:54:01.424Z,100988.44
2022-11-14T15:57:33.058Z,100986.09
2022-11-14T16:00:38.921Z,100995.88
2022-11-14T16:03:54.101Z,100992.03
2022-11-14T16:07:00.688Z,100989.06
2022-11-14T16:14:05.323Z,100990.28
2022-11-14T16:17:17.207Z,100994.53
2022-11-14T16:20:24.874Z,101000.13
2022-11-14T16:23:29.185Z,101005.56
2022-11-14T16:26:31.918Z,101002.56
2022-11-14T16:29:35.601Z,100994.41
2022-11-14T16:32:38.760Z,100995.56
2022-11-14T16:35:41.645Z,101005.50
2022-11-14T16:38:47.484Z,100995.09
2022-11-14T16:41:54.384Z,101000.59
2022-11-14T16:45:07.252Z,100991.34
2022-11-14T16:48:09.965Z,101001.06
2022-11-14T16:51:40.814Z,100992.94
2022-11-14T16:54:41.139Z,101005.16
2022-11-14T16:57:44.045Z,100998.72
2022-11-14T17:00:46.845Z,101002.31
2022-11-14T17:03:49.761Z,101006.59
2022-11-14T17:06:52.626Z,101009.28
2022-11-14T17:09:55.851Z,101008.72
2022-11-14T17:12:59.275Z,101002.84
2022-11-14T17:16:02.914Z,101001.44
2022-11-14T17:19:09.037Z,100998.28
2022-11-14T17:22:13.278Z,100996.69
2022-11-14T17:25:16.072Z,100992.53
2022-11-14T17:28:18.645Z,100990.28
2022-11-14T17:31:21.741Z,100992.41
2022-11-14T17:34:26.632Z,100983.16
2022-11-14T17:37:29.269Z,100986.09
2022-11-14T17:40:31.633Z,100985.81
2022-11-14T17:43:38.969Z,100988.00
2022-11-14T17:46:46.411Z,100980.47
2022-11-14T17:49:49.593Z,100980.41
2022-11-14T17:52:54.143Z,100980.84
2022-11-14T17:56:01.537Z,100986.22
2022-11-14T17:59:04.253Z,100982.44
2022-11-14T18:02:07.380Z,100972.34
2022-11-14T18:05:14.199Z,100973.31
2022-11-14T18:08:17.597Z,100972.09
2022-11-14T18:11:23.886Z,100967.34
2022-11-14T18:14:29.111Z,100964.25
2022-11-14T18:17:33.429Z,100962.50
2022-11-14T18:20:41.059Z,100968.78
2022-11-14T18:23:45.270Z,100962.59
2022-11-14T18:26:49.897Z,100962.75
2022-11-14T18:30:04.003Z,100957.84
2022-11-14T18:33:17.369Z,100967.34
2022-11-14T18:36:20.976Z,100958.09
2022-11-14T18:39:26.008Z,100962.87
2022-11-14T18:42:31.873Z,100963.00
2022-11-14T18:45:36.393Z,100962.34
2022-11-14T18:48:41.476Z,100958.13
2022-11-14T18:51:50.913Z,100960.72
2022-11-14T18:54:53.877Z,100958.09
2022-11-14T18:57:56.646Z,100962.34
2022-11-14T19:01:00.905Z,100958.09
2022-11-14T19:04:05.121Z,100956.78
2022-11-14T19:07:08.725Z,100956.94
2022-11-14T19:10:13.629Z,100957.19
2022-11-14T19:13:17.441Z,100946.84
2022-11-14T19:16:21.170Z,100945.00
2022-11-14T19:19:29.263Z,100935.31
2022-11-14T19:22:35.238Z,100934.44
2022-11-14T19:25:40.277Z,100937.47
2022-11-14T19:28:46.412Z,100941.06
2022-11-14T19:31:52.128Z,100941.97
2022-11-14T19:34:56.176Z,100952.31
2022-11-14T19:38:00.188Z,100946.00
2022-11-14T19:41:08.401Z,100936.97
2022-11-14T19:44:11.478Z,100937.22
2022-11-14T19:47:14.498Z,100933.13
2022-11-14T19:50:21.563Z,100932.50
2022-11-14T19:53:24.356Z,100938.72
2022-11-14T19:56:27.540Z,100939.56
2022-11-14T19:59:34.112Z,100946.59
2022-11-14T20:02:40.758Z,100931.31
2022-11-14T20:05:44.029Z,100933.97
2022-11-14T20:08:47.608Z,100931.06
2022-11-14T20:11:50.470Z,100936.03
2022-11-14T20:14:53.252Z,100931.97
2022-11-14T20:17:56.546Z,100924.47
2022-11-14T20:21:02.502Z,100919.41
2022-11-14T20:24:08.270Z,100915.19
2022-11-14T20:27:12.477Z,100914.28
2022-11-14T20:30:15.932Z,100907.59
2022-11-14T20:33:20.093Z,100899.19
2022-11-14T20:36:31.996Z,100911.41
2022-11-14T20:39:48.812Z,100904.53
2022-11-14T20:42:53.023Z,100914.81
2022-11-14T20:46:00.821Z,100912.94
2022-11-14T20:49:05.442Z,100909.09
2022-11-14T20:52:10.127Z,100912.13
2022-11-14T20:55:12.996Z,100902.56
2022-11-14T20:58:16.030Z,100912.44
2022-11-14T21:01:19.492Z,100914.94
2022-11-14T21:04:25.312Z,100910.69
2022-11-14T21:07:28.098Z,100904.59
2022-11-14T21:10:47.634Z,100903.62
2022-11-14T21:13:59.394Z,100901.00
2022-11-14T21:17:01.411Z,100890.81
2022-11-14T21:20:04.868Z,100891.84
2022-11-14T21:23:10.357Z,100888.28
2022-11-14T21:26:42.840Z,100888.84
2022-11-14T21:29:45.109Z,100872.16
2022-11-14T21:32:48.407Z,100875.69
2022-11-14T21:35:51.206Z,100880.78
2022-11-14T21:38:57.555Z,100871.56
2022-11-14T21:42:02.209Z,100878.06
2022-11-14T21:45:05.488Z,100868.56
2022-11-14T21:48:09.689Z,100866.69
2022-11-14T21:51:17.286Z,100867.47
2022-11-14T21:54:21.604Z,100849.69
2022-11-14T21:57:24.801Z,100855.88
2022-11-14T22:00:28.424Z,100854.37
2022-11-14T22:03:50.023Z,100847.41
2022-11-14T22:06:53.768Z,100850.16
2022-11-14T22:09:56.838Z,100848.34
2022-11-14T22:13:00.014Z,100845.59
2022-11-14T22:16:08.228Z,100839.69
2022-11-14T22:19:11.130Z,100838.50
2022-11-14T22:22:14.516Z,100833.53
2022-11-14T22:25:18.721Z,100837.06
2022-11-14T22:28:22.527Z,100838.91
2022-11-14T22:31:25.529Z,100830.44
2022-11-14T22:34:29.034Z,100823.66
2022-11-14T22:37:39.581Z,100819.25
2022-11-14T22:40:43.713Z,100824.22
2022-11-14T22:43:47.622Z,100820.88
2022-11-14T22:46:50.492Z,100822.06
2022-11-14T22:49:53.209Z,100824.59
2022-11-14T22:53:00.775Z,100830.44
2022-11-14T22:56:10.211Z,100813.84
2022-11-14T22:59:13.607Z,100812.47
2022-11-14T23:02:16.103Z,100814.84
2022-11-14T23:05:19.793Z,100804.62
2022-11-14T23:08:23.061Z,100802.84
2022-11-14T23:11:33.713Z,100796.87
2022-11-14T23:14:36.230Z,100801.03
2022-11-14T23:17:39.332Z,100799.16
2022-11-14T23:20:42.407Z,100799.09
2022-11-14T23:23:45.699Z,100789.72
2022-11-14T23:26:49.305Z,100793.19
2022-11-14T23:29:52.497Z,100787.19
2022-11-14T23:33:00.810Z,100787.97
2022-11-14T23:36:04.821Z,100780.88
2022-11-14T23:39:08.810Z,100786.06
2022-11-14T23:42:11.487Z,100785.56
2022-11-14T23:45:14.195Z,100782.41
2022-11-14T23:48:17.821Z,100779.87
2022-11-14T23:51:20.769Z,100776.50
2022-11-14T23:54:23.878Z,100778.88
2022-11-14T23:57:28.809Z,100775.97
